Time;durP1;ratioP1;P1;durP2;ratioP2;P2;SDS_P1;SDS_P2;PMS_P1;PMS_P2;Temp;Humidity;BMP_temperature;BMP_pressure;BME280_temperature;BME280_humidity;BME280_pressure;Samples;Min_cycle;Max_cycle;Signal;HPM_P1;HPM_P2
2022/05/10 00:00:45;;;;;;;8.77;7.53;;;9.50;99.90;10.40;97502.00;;;;5057455;28;20204;-87
2022/05/10 00:03:38;;;;;;;8.90;8.00;;;9.50;99.90;10.60;97512.00;;;;5083671;28;20211;-87
2022/05/10 00:06:32;;;;;;;13.60;9.07;;;9.60;99.90;10.80;97503.00;;;;5079764;28;20200;-87
2022/05/10 00:09:27;;;;;;;13.00;7.27;;;9.80;99.90;10.70;97495.00;;;;5081493;28;20202;-89
2022/05/10 00:12:16;;;;;;;8.47;7.70;;;9.80;99.90;10.00;97504.00;;;;5072443;28;20211;-87
2022/05/10 00:15:07;;;;;;;9.67;7.17;;;9.80;99.90;10.10;97505.00;;;;5085906;28;20207;-86
2022/05/10 00:17:56;;;;;;;9.73;8.67;;;9.50;99.90;10.40;97495.00;;;;5079853;28;20586;-88
2022/05/10 00:20:46;;;;;;;9.30;8.40;;;9.70;99.90;10.70;97501.00;;;;5084581;28;20279;-87
2022/05/10 00:23:37;;;;;;;8.97;8.07;;;9.70;99.90;10.80;97509.00;;;;5071808;28;20211;-87
2022/05/10 00:26:25;;;;;;;9.13;7.93;;;9.90;99.90;10.50;97498.00;;;;5070554;28;20206;-88
2022/05/10 00:29:14;;;;;;;8.53;7.63;;;9.70;99.90;10.10;97513.00;;;;5098730;28;20227;-87
2022/05/10 00:32:03;;;;;;;9.90;8.25;;;9.80;99.90;10.30;97500.00;;;;5079820;28;20270;-87
2022/05/10 00:34:53;;;;;;;9.20;8.07;;;9.50;99.90;10.40;97511.00;;;;5091323;28;20593;-87
2022/05/10 00:37:42;;;;;;;13.73;8.43;;;9.70;99.90;10.30;97509.00;;;;5088405;28;20219;-87
2022/05/10 00:40:35;;;;;;;11.13;9.00;;;9.40;99.90;10.40;97486.00;;;;5082938;28;20208;-88
2022/05/10 00:43:30;;;;;;;10.40;8.60;;;9.70;99.90;10.60;97496.00;;;;5068967;28;20607;-87
2022/05/10 00:46:25;;;;;;;9.60;8.47;;;9.70;99.90;10.70;97503.00;;;;5071111;28;20219;-87
2022/05/10 00:49:21;;;;;;;10.73;8.37;;;9.70;99.90;10.70;97496.00;;;;5076174;28;20712;-87
2022/05/10 00:52:18;;;;;;;8.37;7.57;;;9.80;99.90;10.40;97499.00;;;;5089868;28;20206;-87
2022/05/10 00:55:13;;;;;;;8.13;7.03;;;9.70;99.90;10.00;97488.00;;;;5087892;28;20200;-87
2022/05/10 00:58:10;;;;;;;8.70;7.80;;;9.60;99.90;9.90;97489.00;;;;5069677;28;20216;-87
2022/05/10 01:01:01;;;;;;;15.03;9.03;;;9.70;99.90;9.80;97484.00;;;;5080572;28;20203;-88
2022/05/10 01:03:55;;;;;;;8.97;7.73;;;10.00;99.90;9.90;97487.00;;;;5084788;28;20573;-87
2022/05/10 01:06:52;;;;;;;10.60;7.97;;;9.50;99.90;10.10;97479.00;;;;5084271;28;20195;-87
2022/05/10 01:09:47;;;;;;;11.50;8.10;;;9.30;99.90;10.40;97483.00;;;;5080997;28;20191;-87
2022/05/10 01:12:40;;;;;;;;;;;9.40;99.90;10.40;97481.00;;;;5091842;28;19920;-88
2022/05/10 01:15:30;;;;;;;;;;;9.40;99.90;10.40;97479.00;;;;5073231;28;19928;-87
2022/05/10 01:18:21;;;;;;;;;;;9.60;99.90;10.50;97473.00;;;;5072616;28;19919;-87
2022/05/10 01:21:25;;;;;;;;;;;9.40;99.90;10.60;97472.00;;;;5082360;28;20307;-87
2022/05/10 01:24:43;;;;;;;;;;;9.50;99.90;10.60;97477.00;;;;5079584;28;20311;-88
2022/05/10 01:27:47;;;;;;;;;;;9.80;99.90;10.70;97469.00;;;;5076865;28;19927;-87
2022/05/10 01:30:38;;;;;;;;;;;9.70;99.90;10.70;97469.00;;;;5099465;28;19920;-87
2022/05/10 01:33:31;;;;;;;11.07;8.10;;;9.80;99.90;10.80;97463.00;;;;5090938;28;19959;-87
2022/05/10 01:36:30;;;;;;;9.67;8.67;;;10.30;99.90;10.80;97459.00;;;;5092040;28;20206;-87
2022/05/10 01:39:25;;;;;;;;;;;9.80;99.90;10.30;97465.00;;;;5068932;28;20228;-86
2022/05/10 01:42:18;;;;;;;;;;;9.80;99.90;10.40;97461.00;;;;5089321;28;20107;-87
2022/05/10 01:45:16;;;;;;;9.03;8.20;;;9.70;99.90;10.30;97458.00;;;;5094468;28;20185;-88
2022/05/10 01:48:11;;;;;;;11.13;7.57;;;9.60;99.90;10.10;97452.00;;;;5072980;28;20584;-87
2022/05/10 01:51:07;;;;;;;12.27;8.97;;;9.50;99.90;10.20;97446.00;;;;5079679;28;20200;-88
2022/05/10 01:53:56;;;;;;;10.90;8.67;;;9.50;99.90;9.90;97452.00;;;;5094127;28;20195;-88
2022/05/10 01:56:45;;;;;;;9.33;8.40;;;8.60;99.90;10.00;97440.00;;;;5080586;28;20199;-89
2022/05/10 01:59:34;;;;;;;9.83;8.83;;;9.30;99.90;9.90;97446.00;;;;5082875;28;20219;-89
2022/05/10 02:02:27;;;;;;;8.73;7.83;;;9.40;99.90;9.80;97452.00;;;;5093653;28;20761;-89
2022/05/10 02:05:28;;;;;;;9.85;8.25;;;9.20;99.90;9.60;97445.00;;;;5092811;28;20603;-89
2022/05/10 02:08:30;;;;;;;8.40;7.60;;;9.10;99.90;9.90;97449.00;;;;5087239;28;20223;-89
2022/05/10 02:11:19;;;;;;;9.90;8.90;;;9.20;99.90;10.10;97436.00;;;;5084728;28;20203;-89
2022/05/10 02:14:16;;;;;;;11.43;9.27;;;9.00;99.90;10.00;97440.00;;;;5073422;28;20207;-89
2022/05/10 02:17:14;;;;;;;10.07;8.47;;;9.10;99.90;10.10;97431.00;;;;5073777;28;20196;-88
2022/05/10 02:20:10;;;;;;;10.53;9.53;;;9.30;99.90;10.20;97433.00;;;;5093348;28;20645;-89
2022/05/10 02:23:07;;;;;;;12.87;8.90;;;9.20;99.90;10.10;97428.00;;;;5094311;28;20926;-88
2022/05/10 02:26:04;;;;;;;9.83;8.87;;;9.10;99.90;10.10;97434.00;;;;5082468;28;20191;-88
2022/05/10 02:29:00;;;;;;;12.50;9.17;;;9.30;99.90;10.10;97427.00;;;;5088257;28;20234;-88
2022/05/10 02:35:04;;;;;;;8.23;7.33;;;9.10;99.90;9.40;97424.00;;;;5079423;28;20204;-86
2022/05/10 02:37:53;;;;;;;10.37;9.27;;;8.70;99.90;9.90;97425.00;;;;5081555;28;20228;-88
2022/05/10 02:40:45;;;;;;;9.37;8.47;;;9.00;99.90;10.10;97418.00;;;;5080744;28;20227;-87
2022/05/10 02:43:37;;;;;;;11.37;8.97;;;8.80;99.90;9.90;97430.00;;;;5075652;28;20556;-87
2022/05/10 02:46:27;;;;;;;11.10;8.27;;;8.90;99.90;9.80;97419.00;;;;5072502;28;20601;-87
2022/05/10 02:49:17;;;;;;;11.50;9.37;;;9.00;99.90;9.40;97419.00;;;;5071686;28;20242;-87
2022/05/10 02:52:07;;;;;;;12.50;9.23;;;9.00;99.90;9.40;97425.00;;;;5073020;28;20219;-86
2022/05/10 02:54:56;;;;;;;11.63;10.00;;;8.80;99.90;9.60;97416.00;;;;5070988;28;20211;-87
2022/05/10 02:57:49;;;;;;;11.10;8.80;;;8.70;99.90;9.70;97423.00;;;;5070609;28;20604;-87
2022/05/10 03:00:39;;;;;;;10.30;9.17;;;8.80;99.90;9.80;97423.00;;;;5077381;28;20227;-86
2022/05/10 03:03:30;;;;;;;11.33;10.17;;;8.80;99.90;10.00;97418.00;;;;5094031;28;20215;-87
2022/05/10 03:06:22;;;;;;;10.83;9.47;;;8.80;99.90;9.90;97424.00;;;;5092976;28;20207;-88
2022/05/10 03:09:12;;;;;;;12.17;9.07;;;8.80;99.90;9.60;97417.00;;;;5092409;28;20223;-88
2022/05/10 03:12:04;;;;;;;10.00;9.00;;;8.80;99.90;10.00;97417.00;;;;5088870;28;20215;-88
2022/05/10 03:14:55;;;;;;;12.93;10.73;;;8.80;99.90;10.20;97415.00;;;;5073703;28;20211;-89
2022/05/10 03:17:43;;;;;;;13.80;9.20;;;8.90;99.90;9.90;97416.00;;;;5071907;28;20239;-88
2022/05/10 03:20:32;;;;;;;9.70;8.73;;;9.00;99.90;9.50;97420.00;;;;5097093;27;20239;-87
2022/05/10 03:23:21;;;;;;;14.07;9.07;;;8.70;99.90;9.50;97413.00;;;;5090848;28;20215;-88
2022/05/10 03:26:12;;;;;;;10.53;8.87;;;8.70;99.90;9.10;97418.00;;;;5081718;28;20204;-88
2022/05/10 03:29:01;;;;;;;10.93;8.73;;;8.60;99.90;9.50;97417.00;;;;5095851;28;20626;-88
2022/05/10 03:31:51;;;;;;;10.20;9.10;;;8.50;99.90;9.60;97411.00;;;;5075887;28;20660;-89
2022/05/10 03:34:56;;;;;;;8.97;7.40;;;6.60;99.90;9.80;97414.00;;;;5090923;28;20685;-88
2022/05/10 03:37:45;;;;;;;12.73;9.03;;;8.80;99.90;9.60;97413.00;;;;5091356;28;21034;-88
2022/05/10 03:40:34;;;;;;;11.03;8.97;;;8.70;99.90;9.80;97424.00;;;;5081421;28;20270;-87
2022/05/10 03:43:23;;;;;;;10.57;9.47;;;8.80;99.90;9.80;97421.00;;;;5082746;28;20674;-87
2022/05/10 03:46:12;;;;;;;12.40;9.60;;;8.80;99.90;10.00;97418.00;;;;5082332;28;20560;-88
2022/05/10 03:49:03;;;;;;;11.00;9.90;;;9.20;99.90;9.80;97418.00;;;;5071118;28;20267;-86
2022/05/10 03:51:54;;;;;;;11.97;9.57;;;8.90;99.90;9.70;97430.00;;;;5080762;28;20210;-88
2022/05/10 03:54:43;;;;;;;11.43;10.03;;;8.80;99.90;10.00;97425.00;;;;5090926;28;20629;-88
2022/05/10 03:57:32;;;;;;;11.47;9.40;;;8.90;99.90;9.90;97426.00;;;;5085756;28;20235;-87
2022/05/10 04:00:26;;;;;;;10.50;8.80;;;8.50;99.90;9.60;97419.00;;;;5089311;28;20223;-88
2022/05/10 04:03:15;;;;;;;10.40;9.30;;;8.80;99.90;9.70;97421.00;;;;5076342;28;20211;-87
2022/05/10 04:06:06;;;;;;;11.50;9.57;;;8.90;99.90;9.60;97419.00;;;;5081218;28;20196;-88
2022/05/10 04:08:56;;;;;;;10.33;9.10;;;8.80;99.90;9.70;97423.00;;;;5084202;28;20215;-89
2022/05/10 04:11:46;;;;;;;10.60;9.10;;;8.70;99.90;9.80;97424.00;;;;5081423;28;20674;-88
2022/05/10 04:14:35;;;;;;;11.37;10.20;;;8.60;99.90;9.90;97428.00;;;;5088213;28;20213;-87
2022/05/10 04:17:24;;;;;;;12.83;10.13;;;9.30;99.90;10.10;97428.00;;;;5077861;28;20327;-87
2022/05/10 04:20:15;;;;;;;12.37;9.13;;;8.80;99.90;10.20;97422.00;;;;5076346;28;20273;-87
2022/05/10 04:23:05;;;;;;;11.33;8.77;;;8.90;99.90;10.00;97426.00;;;;5086719;28;20565;-87
2022/05/10 04:25:54;;;;;;;10.67;8.33;;;9.00;99.90;9.50;97423.00;;;;5077402;28;20199;-87
2022/05/10 04:28:45;;;;;;;10.57;9.23;;;9.00;99.90;9.50;97422.00;;;;5080714;28;20215;-87
2022/05/10 04:31:33;;;;;;;11.50;9.33;;;8.80;99.90;9.60;97424.00;;;;5087649;28;20202;-87
2022/05/10 04:34:22;;;;;;;10.60;8.73;;;9.20;99.90;10.00;97414.00;;;;5097362;28;20206;-86
2022/05/10 04:37:11;;;;;;;11.53;10.37;;;8.80;99.90;10.10;97424.00;;;;5093715;28;20588;-86
2022/05/10 04:43:30;;;;;;;14.57;10.13;;;8.90;99.90;10.20;97421.00;;;;5078504;28;20208;-87
2022/05/10 04:46:19;;;;;;;10.53;9.33;;;8.80;99.90;10.50;97433.00;;;;5085419;28;20554;-86
2022/05/10 04:49:10;;;;;;;10.47;9.43;;;9.10;99.90;10.20;97423.00;;;;5089440;28;20507;-88
2022/05/10 04:51:59;;;;;;;11.57;9.50;;;9.20;99.90;10.40;97426.00;;;;5083260;28;20614;-87
2022/05/10 04:54:48;;;;;;;13.53;9.60;;;9.50;99.90;10.50;97433.00;;;;5069398;28;20693;-88
2022/05/10 04:57:39;;;;;;;12.30;9.10;;;9.80;99.90;10.30;97427.00;;;;5068658;28;20220;-89
2022/05/10 05:00:29;;;;;;;10.80;9.70;;;9.60;99.90;10.60;97428.00;;;;5075980;28;20584;-88
2022/05/10 05:03:18;;;;;;;12.50;9.77;;;9.60;99.90;10.90;97428.00;;;;5089486;28;20207;-87
2022/05/10 05:06:07;;;;;;;10.77;9.67;;;9.60;99.90;11.10;97432.00;;;;5087156;28;20596;-87
2022/05/10 05:08:56;;;;;;;13.63;9.03;;;9.80;99.90;11.00;97429.00;;;;5084465;28;20735;-87
2022/05/10 05:11:45;;;;;;;12.67;11.30;;;9.90;99.90;11.20;97427.00;;;;5098094;28;20206;-87
2022/05/10 05:14:35;;;;;;;11.23;9.20;;;10.00;99.90;11.00;97429.00;;;;5079597;28;20192;-88
2022/05/10 05:17:24;;;;;;;19.37;9.13;;;10.10;99.90;11.00;97429.00;;;;5069785;28;20219;-89
2022/05/10 05:20:13;;;;;;;12.50;10.40;;;10.30;99.90;11.40;97437.00;;;;5091443;28;20653;-86
2022/05/10 05:23:08;;;;;;;18.43;14.73;;;10.20;99.90;11.80;97438.00;;;;5071863;28;20207;-87
2022/05/10 05:25:57;;;;;;;31.57;21.70;;;10.30;99.90;12.10;97443.00;;;;5071611;28;20203;-87
2022/05/10 05:28:46;;;;;;;18.27;16.37;;;10.50;99.90;12.20;97443.00;;;;5081134;28;20207;-88
2022/05/10 05:31:36;;;;;;;18.73;12.97;;;10.70;99.90;12.30;97441.00;;;;5088333;28;20203;-87
2022/05/10 05:34:25;;;;;;;13.37;11.00;;;10.90;99.90;12.50;97441.00;;;;5085982;28;20196;-88
2022/05/10 05:40:21;;;;;;;10.83;9.73;;;11.10;99.90;12.70;97435.00;;;;5080217;28;20222;-88
2022/05/10 05:43:18;;;;;;;11.07;9.53;;;11.40;99.90;13.00;97451.00;;;;5085990;28;20199;-87
2022/05/10 05:46:08;;;;;;;13.50;10.50;;;11.70;99.90;13.30;97446.00;;;;5077505;28;20207;-88
2022/05/10 05:49:01;;;;;;;11.83;10.63;;;11.80;99.90;13.60;97443.00;;;;5080965;28;20586;-88
2022/05/10 05:51:49;;;;;;;11.50;9.67;;;11.90;99.90;13.80;97443.00;;;;5090153;28;20682;-89
2022/05/10 05:54:39;;;;;;;11.83;10.17;;;12.20;99.90;14.00;97448.00;;;;5090692;28;20690;-88
2022/05/10 05:57:28;;;;;;;13.00;9.80;;;12.40;99.90;14.00;97450.00;;;;5089538;28;20222;-88
2022/05/10 06:00:20;;;;;;;11.30;9.67;;;12.40;99.90;14.30;97453.00;;;;5085078;28;20215;-87
2022/05/10 06:03:09;;;;;;;9.63;8.43;;;12.50;99.90;14.60;97456.00;;;;5070727;28;20204;-88
2022/05/10 06:06:00;;;;;;;10.10;8.27;;;12.90;99.90;14.70;97457.00;;;;5069892;28;20619;-87
2022/05/10 06:08:48;;;;;;;11.47;8.27;;;13.20;99.90;15.20;97463.00;;;;5083634;28;20219;-87
2022/05/10 06:11:38;;;;;;;8.57;7.13;;;13.40;99.90;15.20;97462.00;;;;5079913;28;20203;-87
2022/05/10 06:14:27;;;;;;;10.17;6.73;;;13.50;99.90;15.00;97455.00;;;;5084899;28;20576;-88
2022/05/10 06:17:17;;;;;;;8.83;7.33;;;14.00;99.90;15.20;97454.00;;;;5070100;28;20228;-87
2022/05/10 06:20:09;;;;;;;11.20;7.93;;;13.70;99.90;15.70;97451.00;;;;5082049;28;20692;-87
2022/05/10 06:22:59;;;;;;;7.43;6.73;;;13.90;99.90;15.80;97461.00;;;;5070860;28;20557;-87
2022/05/10 06:25:48;;;;;;;8.10;7.30;;;14.10;99.90;16.00;97462.00;;;;5098131;28;20309;-87
2022/05/10 06:28:37;;;;;;;10.83;7.23;;;14.20;99.90;16.00;97465.00;;;;5094137;28;20248;-88
2022/05/10 06:31:26;;;;;;;9.00;6.60;;;14.40;99.90;16.40;97466.00;;;;5093584;28;20206;-87
2022/05/10 06:34:17;;;;;;;8.23;6.30;;;14.60;99.90;16.40;97464.00;;;;5088182;28;20342;-88
2022/05/10 06:38:15;;;;;;;10.90;7.50;;;14.70;99.90;16.50;97463.00;;;;5073332;28;20200;-87
2022/05/10 06:40:20;;;;;;;7.83;7.03;;;14.70;99.90;16.80;97462.00;;;;5089718;28;20211;-86
2022/05/10 06:43:09;;;;;;;7.63;5.97;;;15.20;99.90;16.90;97462.00;;;;5092701;28;20203;-88
2022/05/10 06:45:58;;;;;;;8.07;6.80;;;15.20;99.90;16.80;97465.00;;;;5094090;28;20678;-86
2022/05/10 06:48:48;;;;;;;9.67;5.97;;;15.20;99.90;17.20;97455.00;;;;5077670;28;20211;-87
2022/05/10 06:51:40;;;;;;;8.93;6.83;;;15.40;99.90;17.20;97461.00;;;;5080095;28;20210;-87
2022/05/10 06:54:29;;;;;;;8.13;6.13;;;15.50;99.90;17.50;97461.00;;;;5077903;28;20218;-88
2022/05/10 06:57:19;;;;;;;7.20;5.73;;;15.70;99.90;17.60;97453.00;;;;5072754;28;20243;-87
2022/05/10 07:00:12;;;;;;;7.97;7.00;;;15.90;99.90;17.60;97457.00;;;;5080225;28;20199;-88
2022/05/10 07:03:06;;;;;;;8.00;6.83;;;15.80;99.90;17.80;97455.00;;;;5094032;28;20234;-88
2022/05/10 07:05:56;;;;;;;7.37;5.83;;;16.20;99.90;18.00;97461.00;;;;5094288;28;20242;-86
2022/05/10 07:08:45;;;;;;;6.03;5.50;;;16.20;99.90;18.10;97463.00;;;;5092126;28;20223;-88
2022/05/10 07:11:34;;;;;;;6.27;5.67;;;16.30;99.90;18.10;97456.00;;;;5091151;28;20203;-87
2022/05/10 07:14:25;;;;;;;6.37;5.67;;;16.50;99.90;18.10;97462.00;;;;5092224;28;20795;-87
2022/05/10 07:17:14;;;;;;;6.00;5.50;;;16.50;99.90;18.20;97459.00;;;;5091203;28;20203;-87
2022/05/10 07:20:04;;;;;;;6.57;5.63;;;16.50;99.90;18.30;97457.00;;;;5080771;28;20671;-87
2022/05/10 07:22:53;;;;;;;8.60;6.20;;;16.70;99.90;18.60;97463.00;;;;5091685;28;20223;-88
2022/05/10 07:25:43;;;;;;;7.80;6.87;;;16.80;99.90;18.70;97454.00;;;;5093252;28;20211;-88
2022/05/10 07:28:32;;;;;;;6.00;5.03;;;16.00;99.90;18.60;97461.00;;;;5083139;28;20225;-87
2022/05/10 07:31:22;;;;;;;9.53;6.30;;;16.80;99.90;18.90;97457.00;;;;5079520;28;20200;-87
2022/05/10 07:34:13;;;;;;;6.70;6.00;;;17.00;99.90;19.00;97458.00;;;;5079201;28;20203;-88
2022/05/10 07:37:02;;;;;;;6.47;5.47;;;17.20;99.90;18.90;97452.00;;;;5090957;28;20210;-88
2022/05/10 07:39:51;;;;;;;8.10;5.57;;;17.30;99.90;19.10;97452.00;;;;5090348;28;20211;-88
2022/05/10 07:42:41;;;;;;;6.83;6.10;;;17.30;99.90;19.20;97454.00;;;;5091730;28;20227;-87
2022/05/10 07:45:30;;;;;;;7.63;6.83;;;17.50;99.90;19.50;97450.00;;;;5079306;28;20256;-87
2022/05/10 07:48:20;;;;;;;6.47;5.50;;;17.60;99.90;19.10;97453.00;;;;5091199;28;20604;-89
2022/05/10 07:51:09;;;;;;;7.40;6.07;;;17.90;99.90;19.80;97447.00;;;;5093220;28;20203;-87
2022/05/10 07:54:00;;;;;;;5.97;5.27;;;17.80;99.90;20.20;97451.00;;;;5091183;28;20222;-87
2022/05/10 07:56:49;;;;;;;6.53;5.83;;;18.10;99.90;20.20;97447.00;;;;5077696;28;20225;-88
2022/05/10 07:59:38;;;;;;;9.40;6.90;;;18.10;99.90;20.20;97447.00;;;;5091475;28;20214;-87
2022/05/10 08:02:26;;;;;;;6.20;5.00;;;18.30;99.90;20.60;97448.00;;;;5093808;27;20231;-87
2022/05/10 08:05:21;;;;;;;10.13;6.37;;;18.60;99.90;20.40;97447.00;;;;5091665;28;20207;-86
2022/05/10 08:08:12;;;;;;;6.27;5.67;;;18.50;99.90;20.50;97456.00;;;;5090699;28;20231;-87
2022/05/10 08:11:03;;;;;;;5.50;4.80;;;19.50;99.90;20.80;97447.00;;;;5090647;28;20200;-87
2022/05/10 08:13:52;;;;;;;6.17;5.57;;;18.80;99.90;21.10;97442.00;;;;5091298;28;20468;-87
2022/05/10 08:16:41;;;;;;;5.93;5.33;;;19.60;99.90;21.20;97450.00;;;;5089654;28;20199;-87
2022/05/10 08:19:32;;;;;;;7.43;5.30;;;19.20;99.90;21.30;97449.00;;;;5082903;28;20231;-87
2022/05/10 08:22:22;;;;;;;5.63;5.00;;;19.20;99.90;21.60;97446.00;;;;5089074;28;20215;-87
2022/05/10 08:25:14;;;;;;;7.00;4.97;;;19.50;99.90;21.50;97447.00;;;;5090482;28;20292;-87
2022/05/10 08:28:04;;;;;;;6.87;4.87;;;19.50;99.90;21.60;97445.00;;;;5087938;28;20599;-87
2022/05/10 08:30:53;;;;;;;6.50;5.00;;;19.70;99.90;21.90;97443.00;;;;5083091;28;20210;-86
2022/05/10 08:33:44;;;;;;;6.83;5.33;;;19.80;99.90;22.00;97438.00;;;;5089278;28;20697;-87
2022/05/10 08:36:33;;;;;;;5.10;4.50;;;20.10;99.90;22.30;97445.00;;;;5092187;28;20211;-87
2022/05/10 08:39:23;;;;;;;5.47;4.93;;;20.10;99.90;22.40;97437.00;;;;5090137;28;20199;-87
2022/05/10 08:42:21;;;;;;;5.60;4.97;;;20.30;99.90;22.60;97442.00;;;;5089553;28;20227;-85
2022/05/10 08:45:11;;;;;;;5.60;4.80;;;20.50;99.90;23.00;97440.00;;;;5089734;28;20681;-87
2022/05/10 08:47:59;;;;;;;5.43;4.57;;;20.70;99.90;23.10;97428.00;;;;5090362;28;20754;-87
2022/05/10 08:50:50;;;;;;;5.33;4.43;;;21.10;99.90;22.90;97425.00;;;;5089733;28;20207;-86
2022/05/10 08:53:39;;;;;;;5.63;4.60;;;20.90;99.90;22.80;97423.00;;;;5090950;28;20578;-87
2022/05/10 08:56:32;;;;;;;7.40;4.33;;;21.10;99.90;23.20;97428.00;;;;5089207;28;20199;-86
2022/05/10 08:59:33;;;;;;;5.30;4.60;;;21.20;99.90;22.60;97424.00;;;;5088257;28;20814;-87
2022/05/10 09:02:35;;;;;;;8.37;4.77;;;21.10;99.90;23.30;97427.00;;;;5070148;28;20236;-86
2022/05/10 09:05:32;;;;;;;5.60;5.10;;;21.10;99.90;23.50;97421.00;;;;5070122;28;20199;-86
2022/05/10 09:08:32;;;;;;;6.63;4.33;;;21.50;99.90;23.90;97415.00;;;;5073085;28;20219;-87
2022/05/10 09:11:23;;;;;;;7.53;4.67;;;21.60;99.90;23.40;97408.00;;;;5069964;28;20208;-87
2022/05/10 09:14:14;;;;;;;11.60;4.57;;;21.70;99.90;24.20;97414.00;;;;5069640;28;20608;-87
2022/05/10 09:17:05;;;;;;;5.40;4.70;;;21.80;99.90;24.60;97412.00;;;;5070200;28;20570;-87
2022/05/10 09:19:54;;;;;;;4.70;4.30;;;21.90;99.90;24.20;97397.00;;;;5078044;28;20585;-87
2022/05/10 09:23:19;;;;;;;6.73;4.17;;;22.30;99.90;25.00;97397.00;;;;5076998;28;20319;-87
2022/05/10 09:26:10;;;;;;;5.47;4.27;;;22.40;99.90;25.30;97400.00;;;;5090660;28;20222;-87
2022/05/10 09:29:10;;;;;;;4.60;4.13;;;22.80;99.90;25.60;97391.00;;;;5096177;28;20601;-87
2022/05/10 09:35:23;;;;;;;5.37;3.87;;;23.30;97.90;24.60;97381.00;;;;5069827;28;20211;-87
2022/05/10 09:38:12;;;;;;;5.07;4.63;;;23.30;97.20;25.00;97373.00;;;;5070499;28;20228;-86
2022/05/10 09:41:01;;;;;;;5.17;4.00;;;23.20;96.30;24.10;97364.00;;;;5079244;28;20210;-87
2022/05/10 09:43:50;;;;;;;4.77;4.03;;;23.10;94.60;24.80;97371.00;;;;5087545;28;20705;-86
2022/05/10 09:46:38;;;;;;;6.53;3.73;;;23.10;94.60;25.70;97370.00;;;;5104988;22;20243;-70
2022/05/10 09:49:34;;;;;;;5.00;3.77;;;23.40;95.20;26.30;97368.00;;;;5072790;28;20210;-66
2022/05/10 09:52:27;;;;;;;3.77;3.47;;;23.50;95.90;26.20;97373.00;;;;5081161;28;20615;-66
2022/05/10 09:55:27;;;;;;;3.93;3.00;;;23.80;94.60;24.80;97350.00;;;;5088328;28;20214;-65
2022/05/10 09:58:21;;;;;;;3.57;2.50;;;23.80;89.20;25.40;97364.00;;;;5088476;28;20203;-68
2022/05/10 10:01:15;;;;;;;2.83;2.40;;;23.80;86.80;26.10;97352.00;;;;5078893;28;20583;-68
2022/05/10 10:04:18;;;;;;;4.10;2.90;;;23.90;89.40;26.30;97340.00;;;;5091984;28;20237;-68
2022/05/10 10:07:13;;;;;;;3.50;3.20;;;24.20;84.30;26.70;97344.00;;;;5092397;28;20247;-68
2022/05/10 10:10:18;;;;;;;3.70;3.40;;;24.30;85.70;27.10;97340.00;;;;5091832;28;20196;-68
2022/05/10 10:13:29;;;;;;;3.27;3.07;;;24.60;89.70;26.60;97339.00;;;;5092189;28;20228;-68
2022/05/10 10:16:24;;;;;;;3.60;3.30;;;24.70;89.50;27.00;97333.00;;;;5091942;28;20222;-68
2022/05/10 10:19:36;;;;;;;5.33;3.40;;;24.70;89.80;27.40;97334.00;;;;5090499;28;20696;-68
2022/05/10 10:22:34;;;;;;;4.43;3.87;;;25.00;90.10;25.80;97331.00;;;;5081537;28;20217;-68
2022/05/10 10:25:28;;;;;;;5.27;4.23;;;24.90;85.00;26.30;97326.00;;;;5092392;28;20201;-68
2022/05/10 10:28:29;;;;;;;5.77;4.40;;;24.80;84.80;26.20;97318.00;;;;5074976;28;20205;-68
2022/05/10 10:31:26;;;;;;;3.77;3.40;;;24.70;85.20;26.50;97319.00;;;;5085136;28;20205;-68
2022/05/10 10:34:22;;;;;;;4.70;3.57;;;24.70;82.80;27.70;97302.00;;;;5086618;28;20232;-68
2022/05/10 10:37:16;;;;;;;3.27;2.93;;;24.90;83.50;27.80;97295.00;;;;5091486;28;20678;-68
2022/05/10 10:40:23;;;;;;;2.60;2.40;;;25.20;80.00;28.00;97301.00;;;;5091712;28;20212;-68
2022/05/10 10:43:24;;;;;;;2.73;2.53;;;25.50;78.10;28.30;97297.00;;;;5091737;28;20242;-68
2022/05/10 10:46:26;;;;;;;4.33;3.70;;;25.80;78.30;28.60;97290.00;;;;5071713;28;20673;-68
2022/05/10 10:49:18;;;;;;;4.33;3.17;;;26.00;78.50;29.10;97291.00;;;;5089028;28;20194;-68
2022/05/10 10:52:08;;;;;;;3.87;3.23;;;26.30;79.90;25.30;97272.00;;;;5090881;28;20215;-68
2022/05/10 10:54:57;;;;;;;3.57;3.27;;;25.80;71.40;26.90;97280.00;;;;5084781;28;20203;-68
2022/05/10 10:58:03;;;;;;;3.63;2.83;;;25.60;75.80;28.30;97279.00;;;;5071501;28;20261;-68
2022/05/10 11:00:57;;;;;;;5.23;3.57;;;25.80;75.40;27.80;97274.00;;;;5071261;28;20201;-67
2022/05/10 11:03:59;;;;;;;5.93;4.00;;;25.90;77.50;28.60;97273.00;;;;5083772;28;20226;-68
2022/05/10 11:06:52;;;;;;;5.73;3.30;;;26.20;75.30;28.90;97271.00;;;;5090713;28;20207;-68
2022/05/10 11:09:50;;;;;;;4.53;3.60;;;26.40;74.90;29.20;97264.00;;;;5091236;28;20201;-68
2022/05/10 11:12:56;;;;;;;3.63;3.30;;;26.70;86.30;28.50;97249.00;;;;5084391;28;20410;-69
2022/05/10 11:15:54;;;;;;;3.95;3.42;;;26.90;82.40;28.60;97253.00;;;;5088067;28;20394;-68
2022/05/10 11:19:02;;;;;;;4.93;3.37;;;27.10;82.90;29.60;97244.00;;;;5088328;28;20386;-68
2022/05/10 11:22:01;;;;;;;3.75;3.15;;;26.90;80.70;29.90;97253.00;;;;5083980;28;20394;-69
2022/05/10 11:25:06;;;;;;;4.03;3.20;;;27.20;73.60;29.80;97241.00;;;;5078363;28;20240;-69
2022/05/10 11:28:30;;;;;;;2.93;2.63;;;27.50;70.30;29.10;97247.00;;;;5082825;28;20192;-68
2022/05/10 11:31:28;;;;;;;5.00;3.37;;;27.40;66.70;28.00;97233.00;;;;5084979;28;20202;-69
2022/05/10 11:34:41;;;;;;;3.60;3.23;;;27.30;64.70;29.90;97230.00;;;;5078190;28;20695;-69
2022/05/10 11:37:37;;;;;;;4.83;3.10;;;27.60;69.10;29.80;97231.00;;;;5090105;28;20200;-68
2022/05/10 11:41:08;;;;;;;3.33;3.07;;;27.60;65.90;30.70;97213.00;;;;5082314;28;20220;-68
2022/05/10 11:44:42;;;;;;;4.90;3.30;;;28.00;67.20;28.30;97246.00;;;;5022084;28;20235;-68
2022/05/10 11:47:59;;;;;;;3.30;3.00;;;28.20;63.20;28.30;97213.00;;;;5087705;28;20211;-68
2022/05/10 11:54:56;;;;;;;3.63;2.97;;;27.40;63.20;30.60;97203.00;;;;5088417;28;20285;-69
2022/05/10 11:57:45;;;;;;;4.27;3.87;;;28.00;65.40;31.40;97196.00;;;;5081782;28;20233;-69
2022/05/10 12:00:50;;;;;;;;;;;28.30;66.90;28.70;97191.00;;;;5087750;28;20047;-69
2022/05/10 12:03:51;;;;;;;;;;;28.60;65.90;29.50;97194.00;;;;5084132;28;19927;-69
2022/05/10 12:06:43;;;;;;;;;;;28.40;66.20;31.70;97186.00;;;;5086803;28;20315;-68
2022/05/10 12:09:57;;;;;;;;;;;28.60;69.90;30.40;97207.00;;;;5088232;28;20379;-68
2022/05/10 12:13:03;;;;;;;;;;;28.90;66.30;31.50;97183.00;;;;5087515;28;19930;-69
2022/05/10 12:22:54;;;;;;;4.40;3.60;;;28.60;78.20;30.10;97167.00;;;;5087352;28;20232;-70
2022/05/10 12:25:52;;;;;;;4.35;3.38;;;28.30;79.30;30.90;97190.00;;;;5081655;28;20205;-70
2022/05/10 12:28:47;;;;;;;2.92;2.72;;;28.50;83.80;30.50;97249.00;;;;5085485;28;20201;-69
2022/05/10 12:31:55;;;;;;;3.83;3.47;;;;;28.00;97242.00;;;;5087915;28;20212;-70
2022/05/10 12:34:52;;;;;;;3.40;2.95;;;27.80;96.00;28.30;97192.00;;;;5069896;28;20206;-71
2022/05/10 12:37:59;;;;;;;5.40;3.17;;;27.50;80.70;27.90;97238.00;;;;5073867;28;20210;-68
2022/05/10 12:41:07;;;;;;;3.03;2.73;;;;;25.80;97214.00;;;;5071172;28;20206;-68
2022/05/10 12:44:51;;;;;;;3.57;3.03;;;26.10;73.50;27.00;97209.00;;;;5086125;28;20607;-69
2022/05/10 12:48:01;;;;;;;3.00;2.70;;;25.90;78.80;26.70;97132.00;;;;5088728;28;20205;-68
2022/05/10 12:50:59;;;;;;;3.30;2.93;;;25.70;75.60;27.00;97126.00;;;;5086498;28;20198;-68
2022/05/10 12:54:00;;;;;;;3.53;3.23;;;25.70;77.40;27.10;97198.00;;;;5086352;28;20242;-68
2022/05/10 12:57:07;;;;;;;4.27;3.57;;;25.70;78.40;26.40;97121.00;;;;5068873;28;20215;-68
2022/05/10 13:00:07;;;;;;;7.30;4.13;;;25.30;78.60;27.10;97122.00;;;;5082692;28;20210;-68
2022/05/10 13:03:06;;;;;;;4.77;3.27;;;25.60;80.10;27.20;97114.00;;;;5087649;28;20220;-68
2022/05/10 13:06:13;;;;;;;7.43;3.10;;;25.80;79.50;27.20;97118.00;;;;5077201;28;20209;-68
2022/05/10 13:09:29;;;;;;;3.73;2.87;;;25.90;77.70;27.20;97117.00;;;;5076349;28;20209;-68
2022/05/10 13:12:21;;;;;;;6.27;3.70;;;25.90;78.80;26.70;97111.00;;;;5077677;28;20222;-68
2022/05/10 13:15:14;;;;;;;3.73;3.00;;;25.90;76.60;26.10;97107.00;;;;5086345;28;20203;-69
2022/05/10 13:18:06;;;;;;;4.00;3.40;;;25.60;75.20;26.60;97102.00;;;;5083195;28;20207;-68
2022/05/10 13:21:00;;;;;;;4.00;3.17;;;25.40;76.50;26.70;97098.00;;;;5086326;28;20213;-67
2022/05/10 13:23:48;;;;;;;3.97;3.40;;;25.60;75.80;27.70;97103.00;;;;5075226;28;20249;-69